Terminal Aerodrome Forecast
Issued by NWS

Home | Current Version | Previous Version | Text Only | Print | Product List | Glossary On
Versions: 1 2 3 4 5 6 7 8 9
630
FTUS45 KVEF 242320
TAFVGT
TAF
KVGT 242320Z 2500/2524 28009KT P6SM SCT150 BKN200
     FM250400 33017G25KT P6SM BKN150
     FM251100 33011KT P6SM BKN150
     FM251500 34017G26KT P6SM SCT150 BKN250=

USA.gov is the U.S. government's official web portal to all federal, state and local government web resources and services.